sensor_id;sensor_type;location;lat;lon;timestamp;pressure;altitude;pressure_sealevel;temperature;humidity
67803;BME280;54601;51.378;-1.342;2023-05-23T00:00:18;101247.19;;;20.82;33.09
67803;BME280;54601;51.378;-1.342;2023-05-23T00:02:44;101249.06;;;20.64;33.02
67803;BME280;54601;51.378;-1.342;2023-05-23T00:05:10;101250.34;;;20.42;33.23
67803;BME280;54601;51.378;-1.342;2023-05-23T00:07:36;101254.39;;;20.94;32.47
67803;BME280;54601;51.378;-1.342;2023-05-23T00:10:02;101250.92;;;20.69;32.79
67803;BME280;54601;51.378;-1.342;2023-05-23T00:12:28;101246.82;;;21.09;32.25
67803;BME280;54601;51.378;-1.342;2023-05-23T00:14:54;101249.82;;;20.84;32.57
67803;BME280;54601;51.378;-1.342;2023-05-23T00:17:19;101245.81;;;20.79;32.78
67803;BME280;54601;51.378;-1.342;2023-05-23T00:19:45;101244.95;;;20.87;32.58
67803;BME280;54601;51.378;-1.342;2023-05-23T00:22:11;101245.30;;;20.97;32.57
67803;BME280;54601;51.378;-1.342;2023-05-23T00:24:37;101247.05;;;20.99;32.61
67803;BME280;54601;51.378;-1.342;2023-05-23T00:27:04;101243.29;;;20.65;32.91
67803;BME280;54601;51.378;-1.342;2023-05-23T00:29:29;101239.56;;;20.83;32.45
67803;BME280;54601;51.378;-1.342;2023-05-23T00:31:55;101238.14;;;21.06;32.30
67803;BME280;54601;51.378;-1.342;2023-05-23T00:34:21;101241.12;;;20.51;33.02
67803;BME280;54601;51.378;-1.342;2023-05-23T00:36:47;101248.19;;;20.84;32.59
67803;BME280;54601;51.378;-1.342;2023-05-23T00:39:13;101247.08;;;20.71;32.71
67803;BME280;54601;51.378;-1.342;2023-05-23T00:41:39;101244.79;;;20.95;32.29
67803;BME280;54601;51.378;-1.342;2023-05-23T00:44:05;101241.56;;;20.80;32.44
67803;BME280;54601;51.378;-1.342;2023-05-23T00:46:31;101246.43;;;20.78;32.57
67803;BME280;54601;51.378;-1.342;2023-05-23T00:48:57;101246.85;;;20.81;32.49
67803;BME280;54601;51.378;-1.342;2023-05-23T00:51:23;101245.30;;;20.49;32.80
67803;BME280;54601;51.378;-1.342;2023-05-23T00:53:49;101246.30;;;20.46;32.75
67803;BME280;54601;51.378;-1.342;2023-05-23T00:56:15;101249.31;;;20.92;32.12
67803;BME280;54601;51.378;-1.342;2023-05-23T00:58:41;101243.82;;;20.77;32.26
67803;BME280;54601;51.378;-1.342;2023-05-23T01:01:07;101242.38;;;20.55;32.54
67803;BME280;54601;51.378;-1.342;2023-05-23T01:03:32;101241.96;;;20.71;32.36
67803;BME280;54601;51.378;-1.342;2023-05-23T01:05:58;101245.23;;;20.84;32.17
67803;BME280;54601;51.378;-1.342;2023-05-23T01:08:24;101246.73;;;20.56;32.45
67803;BME280;54601;51.378;-1.342;2023-05-23T01:10:51;101246.44;;;20.68;32.33
67803;BME280;54601;51.378;-1.342;2023-05-23T01:13:22;101246.74;;;20.47;32.24
67803;BME280;54601;51.378;-1.342;2023-05-23T01:15:46;101245.12;;;20.57;32.11
67803;BME280;54601;51.378;-1.342;2023-05-23T01:18:11;101247.76;;;20.68;32.18
67803;BME280;54601;51.378;-1.342;2023-05-23T01:20:40;101247.78;;;21.21;31.80
67803;BME280;54601;51.378;-1.342;2023-05-23T01:23:10;101249.48;;;20.62;31.85
67803;BME280;54601;51.378;-1.342;2023-05-23T01:25:38;101249.68;;;20.73;31.99
67803;BME280;54601;51.378;-1.342;2023-05-23T01:27:54;101247.83;;;20.87;32.16
67803;BME280;54601;51.378;-1.342;2023-05-23T01:30:19;101249.45;;;20.75;31.84
67803;BME280;54601;51.378;-1.342;2023-05-23T01:32:46;101251.74;;;20.35;32.14
67803;BME280;54601;51.378;-1.342;2023-05-23T01:35:11;101254.04;;;20.87;31.77
67803;BME280;54601;51.378;-1.342;2023-05-23T01:37:36;101259.16;;;20.90;32.10
67803;BME280;54601;51.378;-1.342;2023-05-23T01:40:02;101257.46;;;20.82;31.77
67803;BME280;54601;51.378;-1.342;2023-05-23T01:42:28;101257.96;;;20.78;32.17
67803;BME280;54601;51.378;-1.342;2023-05-23T01:44:54;101255.40;;;20.80;31.66
67803;BME280;54601;51.378;-1.342;2023-05-23T01:47:20;101250.36;;;20.42;32.16
67803;BME280;54601;51.378;-1.342;2023-05-23T01:49:46;101250.34;;;20.53;31.77
67803;BME280;54601;51.378;-1.342;2023-05-23T01:52:12;101250.56;;;20.77;32.13
67803;BME280;54601;51.378;-1.342;2023-05-23T01:54:38;101252.62;;;20.80;32.03
67803;BME280;54601;51.378;-1.342;2023-05-23T01:57:04;101251.08;;;20.38;32.10
67803;BME280;54601;51.378;-1.342;2023-05-23T01:59:29;101253.86;;;20.57;31.74
67803;BME280;54601;51.378;-1.342;2023-05-23T02:01:55;101249.46;;;20.80;31.85
67803;BME280;54601;51.378;-1.342;2023-05-23T02:04:21;101250.86;;;20.57;31.78
67803;BME280;54601;51.378;-1.342;2023-05-23T02:06:47;101249.69;;;20.57;31.74
67803;BME280;54601;51.378;-1.342;2023-05-23T02:09:13;101250.99;;;20.73;31.53
67803;BME280;54601;51.378;-1.342;2023-05-23T02:11:39;101254.94;;;20.68;31.90
67803;BME280;54601;51.378;-1.342;2023-05-23T02:14:06;101259.39;;;20.91;31.55
67803;BME280;54601;51.378;-1.342;2023-05-23T02:16:31;101257.43;;;20.43;31.86
67803;BME280;54601;51.378;-1.342;2023-05-23T02:18:57;101261.59;;;20.44;31.40
67803;BME280;54601;51.378;-1.342;2023-05-23T02:21:23;101263.29;;;20.53;31.64
67803;BME280;54601;51.378;-1.342;2023-05-23T02:23:49;101264.46;;;20.83;31.61
67803;BME280;54601;51.378;-1.342;2023-05-23T02:26:15;101269.03;;;20.93;31.43
67803;BME280;54601;51.378;-1.342;2023-05-23T02:28:41;101267.80;;;20.34;31.94
67803;BME280;54601;51.378;-1.342;2023-05-23T02:31:07;101268.25;;;20.66;31.68
67803;BME280;54601;51.378;-1.342;2023-05-23T02:33:33;101266.27;;;20.40;31.86
67803;BME280;54601;51.378;-1.342;2023-05-23T02:35:59;101267.75;;;20.55;31.85
67803;BME280;54601;51.378;-1.342;2023-05-23T02:38:25;101266.55;;;20.87;31.42
67803;BME280;54601;51.378;-1.342;2023-05-23T02:40:51;101268.47;;;20.66;31.75
67803;BME280;54601;51.378;-1.342;2023-05-23T02:43:17;101269.56;;;20.36;31.81
67803;BME280;54601;51.378;-1.342;2023-05-23T02:45:43;101271.44;;;20.33;31.65
67803;BME280;54601;51.378;-1.342;2023-05-23T02:48:09;101274.92;;;20.70;31.50
67803;BME280;54601;51.378;-1.342;2023-05-23T02:50:35;101275.33;;;21.03;31.14
67803;BME280;54601;51.378;-1.342;2023-05-23T02:53:01;101276.35;;;20.66;31.58
67803;BME280;54601;51.378;-1.342;2023-05-23T02:55:27;101282.13;;;20.61;31.37
67803;BME280;54601;51.378;-1.342;2023-05-23T02:57:53;101285.32;;;20.63;31.21
67803;BME280;54601;51.378;-1.342;2023-05-23T03:00:19;101283.04;;;20.94;31.24
67803;BME280;54601;51.378;-1.342;2023-05-23T03:02:45;101284.95;;;20.35;31.49
67803;BME280;54601;51.378;-1.342;2023-05-23T03:05:11;101282.67;;;20.62;31.53
67803;BME280;54601;51.378;-1.342;2023-05-23T03:07:37;101279.03;;;20.49;31.56
67803;BME280;54601;51.378;-1.342;2023-05-23T03:10:03;101283.14;;;20.41;31.37
67803;BME280;54601;51.378;-1.342;2023-05-23T03:12:29;101280.65;;;20.88;31.05
67803;BME280;54601;51.378;-1.342;2023-05-23T03:14:55;101280.79;;;20.63;31.33
67803;BME280;54601;51.378;-1.342;2023-05-23T03:17:21;101280.40;;;20.39;31.24
67803;BME280;54601;51.378;-1.342;2023-05-23T03:19:47;101279.63;;;20.52;31.51
67803;BME280;54601;51.378;-1.342;2023-05-23T03:22:13;101278.87;;;20.46;31.44
67803;BME280;54601;51.378;-1.342;2023-05-23T03:24:39;101281.25;;;20.81;30.95
67803;BME280;54601;51.378;-1.342;2023-05-23T03:27:05;101284.24;;;20.53;31.38
67803;BME280;54601;51.378;-1.342;2023-05-23T03:29:30;101287.17;;;20.68;31.33
67803;BME280;54601;51.378;-1.342;2023-05-23T03:31:57;101285.16;;;20.30;31.37
67803;BME280;54601;51.378;-1.342;2023-05-23T03:34:22;101284.76;;;20.75;31.00
67803;BME280;54601;51.378;-1.342;2023-05-23T03:36:48;101281.96;;;20.24;31.34
67803;BME280;54601;51.378;-1.342;2023-05-23T03:39:14;101282.19;;;20.73;30.97
67803;BME280;54601;51.378;-1.342;2023-05-23T03:41:40;101282.95;;;20.65;31.07
67803;BME280;54601;51.378;-1.342;2023-05-23T03:44:06;101280.39;;;20.70;31.03
67803;BME280;54601;51.378;-1.342;2023-05-23T03:46:33;101279.85;;;20.84;30.83
67803;BME280;54601;51.378;-1.342;2023-05-23T03:48:59;101279.02;;;20.60;31.03
67803;BME280;54601;51.378;-1.342;2023-05-23T03:51:24;101275.90;;;21.03;30.69
67803;BME280;54601;51.378;-1.342;2023-05-23T03:53:50;101276.43;;;20.94;30.68
67803;BME280;54601;51.378;-1.342;2023-05-23T03:56:16;101270.43;;;20.86;30.78
67803;BME280;54601;51.378;-1.342;2023-05-23T03:58:42;101268.64;;;20.44;31.19
67803;BME280;54601;51.378;-1.342;2023-05-23T04:01:09;101270.60;;;20.70;31.06
67803;BME280;54601;51.378;-1.342;2023-05-23T04:03:35;101274.06;;;20.64;31.03
67803;BME280;54601;51.378;-1.342;2023-05-23T04:06:01;101270.74;;;20.83;30.70
67803;BME280;54601;51.378;-1.342;2023-05-23T04:08:27;101272.83;;;20.85;30.68
67803;BME280;54601;51.378;-1.342;2023-05-23T04:10:52;101273.92;;;21.12;30.46
67803;BME280;54601;51.378;-1.342;2023-05-23T04:13:19;101275.23;;;20.86;30.25
67803;BME280;54601;51.378;-1.342;2023-05-23T04:15:45;101281.18;;;20.79;30.66
67803;BME280;54601;51.378;-1.342;2023-05-23T04:18:11;101287.31;;;20.75;30.77
67803;BME280;54601;51.378;-1.342;2023-05-23T04:20:37;101284.42;;;20.96;30.48
67803;BME280;54601;51.378;-1.342;2023-05-23T04:23:03;101286.43;;;21.00;30.24
67803;BME280;54601;51.378;-1.342;2023-05-23T04:25:29;101289.74;;;20.65;30.78
67803;BME280;54601;51.378;-1.342;2023-05-23T04:27:55;101294.89;;;20.74;30.70
67803;BME280;54601;51.378;-1.342;2023-05-23T04:30:21;101297.03;;;20.78;30.61
67803;BME280;54601;51.378;-1.342;2023-05-23T04:32:47;101292.14;;;20.68;31.02
67803;BME280;54601;51.378;-1.342;2023-05-23T04:35:13;101294.18;;;20.49;30.89
67803;BME280;54601;51.378;-1.342;2023-05-23T04:37:39;101296.19;;;20.89;30.61
67803;BME280;54601;51.378;-1.342;2023-05-23T04:40:05;101303.12;;;21.02;30.14
67803;BME280;54601;51.378;-1.342;2023-05-23T04:42:31;101305.06;;;21.20;30.54
67803;BME280;54601;51.378;-1.342;2023-05-23T04:44:57;101308.77;;;21.05;30.69
67803;BME280;54601;51.378;-1.342;2023-05-23T04:47:23;101314.37;;;20.72;30.72
67803;BME280;54601;51.378;-1.342;2023-05-23T04:49:49;101318.09;;;20.70;30.55
67803;BME280;54601;51.378;-1.342;2023-05-23T04:52:15;101326.09;;;20.94;30.23
67803;BME280;54601;51.378;-1.342;2023-05-23T04:54:41;101320.81;;;20.64;30.80
67803;BME280;54601;51.378;-1.342;2023-05-23T04:57:07;101327.64;;;21.04;30.32
67803;BME280;54601;51.378;-1.342;2023-05-23T04:59:33;101327.33;;;20.67;30.13
67803;BME280;54601;51.378;-1.342;2023-05-23T05:01:59;101326.25;;;21.03;30.21
67803;BME280;54601;51.378;-1.342;2023-05-23T05:04:25;101325.50;;;20.76;30.38
67803;BME280;54601;51.378;-1.342;2023-05-23T05:06:51;101328.23;;;20.87;30.38
67803;BME280;54601;51.378;-1.342;2023-05-23T05:09:17;101326.98;;;20.90;30.83
67803;BME280;54601;51.378;-1.342;2023-05-23T05:11:43;101327.48;;;20.43;30.34
67803;BME280;54601;51.378;-1.342;2023-05-23T05:14:09;101333.52;;;21.35;30.18
67803;BME280;54601;51.378;-1.342;2023-05-23T05:16:35;101333.76;;;20.97;30.11
67803;BME280;54601;51.378;-1.342;2023-05-23T05:19:01;101335.60;;;21.02;30.07
67803;BME280;54601;51.378;-1.342;2023-05-23T05:21:27;101336.05;;;20.62;30.63
67803;BME280;54601;51.378;-1.342;2023-05-23T05:23:53;101339.36;;;20.88;30.19
67803;BME280;54601;51.378;-1.342;2023-05-23T05:26:19;101339.44;;;21.06;30.20
67803;BME280;54601;51.378;-1.342;2023-05-23T05:28:45;101341.18;;;20.62;30.61
67803;BME280;54601;51.378;-1.342;2023-05-23T05:31:11;101340.37;;;20.80;30.33
67803;BME280;54601;51.378;-1.342;2023-05-23T05:33:37;101339.32;;;20.39;30.83
67803;BME280;54601;51.378;-1.342;2023-05-23T05:36:04;101342.93;;;20.75;30.19
67803;BME280;54601;51.378;-1.342;2023-05-23T05:38:29;101346.20;;;20.88;30.08
67803;BME280;54601;51.378;-1.342;2023-05-23T05:40:55;101344.49;;;20.82;30.49
67803;BME280;54601;51.378;-1.342;2023-05-23T05:43:21;101344.63;;;20.77;30.39
67803;BME280;54601;51.378;-1.342;2023-05-23T05:45:47;101341.80;;;20.90;30.13
67803;BME280;54601;51.378;-1.342;2023-05-23T05:48:13;101341.22;;;20.72;30.45
67803;BME280;54601;51.378;-1.342;2023-05-23T05:50:39;101341.37;;;20.72;30.43
67803;BME280;54601;51.378;-1.342;2023-05-23T05:53:05;101338.29;;;20.35;30.92
67803;BME280;54601;51.378;-1.342;2023-05-23T05:55:31;101337.65;;;20.80;30.73
67803;BME280;54601;51.378;-1.342;2023-05-23T05:57:57;101340.94;;;20.73;30.98
67803;BME280;54601;51.378;-1.342;2023-05-23T06:00:22;101344.91;;;20.73;30.65
67803;BME280;54601;51.378;-1.342;2023-05-23T06:02:48;101348.99;;;20.85;30.40
67803;BME280;54601;51.378;-1.342;2023-05-23T06:05:13;101349.74;;;20.52;30.89
67803;BME280;54601;51.378;-1.342;2023-05-23T06:07:39;101348.84;;;20.65;30.96
67803;BME280;54601;51.378;-1.342;2023-05-23T06:10:06;101349.63;;;20.79;30.69
67803;BME280;54601;51.378;-1.342;2023-05-23T06:12:31;101346.22;;;20.39;30.99
67803;BME280;54601;51.378;-1.342;2023-05-23T06:14:57;101352.89;;;20.82;30.56
67803;BME280;54601;51.378;-1.342;2023-05-23T06:17:23;101350.91;;;20.33;31.06
67803;BME280;54601;51.378;-1.342;2023-05-23T06:19:49;101352.97;;;20.83;30.57
67803;BME280;54601;51.378;-1.342;2023-05-23T06:22:15;101350.76;;;20.85;30.60
67803;BME280;54601;51.378;-1.342;2023-05-23T06:24:41;101348.63;;;20.96;30.88
67803;BME280;54601;51.378;-1.342;2023-05-23T06:27:07;101346.94;;;20.42;31.29
67803;BME280;54601;51.378;-1.342;2023-05-23T06:29:33;101347.99;;;20.44;31.39
67803;BME280;54601;51.378;-1.342;2023-05-23T06:31:59;101344.30;;;20.50;31.30
67803;BME280;54601;51.378;-1.342;2023-05-23T06:34:25;101350.99;;;20.84;30.98
67803;BME280;54601;51.378;-1.342;2023-05-23T06:36:51;101348.79;;;20.91;30.84
67803;BME280;54601;51.378;-1.342;2023-05-23T06:39:17;101349.65;;;21.23;30.43
67803;BME280;54601;51.378;-1.342;2023-05-23T06:41:43;101344.20;;;20.94;30.79
67803;BME280;54601;51.378;-1.342;2023-05-23T06:44:10;101340.10;;;20.79;30.74
67803;BME280;54601;51.378;-1.342;2023-05-23T06:46:35;101338.77;;;21.16;30.69
67803;BME280;54601;51.378;-1.342;2023-05-23T06:49:01;101337.54;;;21.47;30.33
67803;BME280;54601;51.378;-1.342;2023-05-23T06:51:27;101339.62;;;21.52;30.20
67803;BME280;54601;51.378;-1.342;2023-05-23T06:53:53;101338.06;;;21.50;30.36
67803;BME280;54601;51.378;-1.342;2023-05-23T06:56:19;101341.24;;;21.75;30.11
67803;BME280;54601;51.378;-1.342;2023-05-23T06:58:45;101336.11;;;21.72;29.83
67803;BME280;54601;51.378;-1.342;2023-05-23T07:01:11;101340.38;;;21.74;30.11
67803;BME280;54601;51.378;-1.342;2023-05-23T07:03:37;101341.82;;;21.11;30.42
67803;BME280;54601;51.378;-1.342;2023-05-23T07:06:03;101344.23;;;21.15;30.96
67803;BME280;54601;51.378;-1.342;2023-05-23T07:08:29;101345.27;;;21.07;30.77
67803;BME280;54601;51.378;-1.342;2023-05-23T07:10:55;101344.32;;;21.15;31.02
67803;BME280;54601;51.378;-1.342;2023-05-23T07:13:21;101341.92;;;20.84;31.04
67803;BME280;54601;51.378;-1.342;2023-05-23T07:15:47;101344.17;;;21.12;31.00
67803;BME280;54601;51.378;-1.342;2023-05-23T07:18:13;101349.05;;;21.68;30.34
67803;BME280;54601;51.378;-1.342;2023-05-23T07:20:39;101348.84;;;21.66;30.00
67803;BME280;54601;51.378;-1.342;2023-05-23T07:23:05;101350.96;;;21.07;30.40
67803;BME280;54601;51.378;-1.342;2023-05-23T07:25:31;101349.43;;;21.55;30.15
67803;BME280;54601;51.378;-1.342;2023-05-23T07:27:57;101354.27;;;21.09;30.58
67803;BME280;54601;51.378;-1.342;2023-05-23T07:30:23;101351.06;;;21.45;30.19
67803;BME280;54601;51.378;-1.342;2023-05-23T07:32:49;101348.55;;;21.46;30.24
67803;BME280;54601;51.378;-1.342;2023-05-23T07:35:15;101348.33;;;21.29;30.40
67803;BME280;54601;51.378;-1.342;2023-05-23T07:37:41;101347.86;;;21.62;30.30
67803;BME280;54601;51.378;-1.342;2023-05-23T07:40:07;101353.36;;;21.35;30.57
67803;BME280;54601;51.378;-1.342;2023-05-23T07:42:33;101354.94;;;21.43;30.24
67803;BME280;54601;51.378;-1.342;2023-05-23T07:44:59;101356.36;;;21.23;30.42
67803;BME280;54601;51.378;-1.342;2023-05-23T07:47:25;101360.15;;;21.27;30.39
67803;BME280;54601;51.378;-1.342;2023-05-23T07:49:51;101360.41;;;21.21;30.47
67803;BME280;54601;51.378;-1.342;2023-05-23T07:52:17;101359.62;;;21.47;30.20
67803;BME280;54601;51.378;-1.342;2023-05-23T07:54:43;101362.45;;;21.19;30.49
67803;BME280;54601;51.378;-1.342;2023-05-23T07:57:09;101365.71;;;21.45;30.56
67803;BME280;54601;51.378;-1.342;2023-05-23T07:59:35;101366.04;;;21.47;30.21
67803;BME280;54601;51.378;-1.342;2023-05-23T08:02:01;101367.48;;;21.40;30.55
67803;BME280;54601;51.378;-1.342;2023-05-23T08:04:27;101362.50;;;21.17;30.53
67803;BME280;54601;51.378;-1.342;2023-05-23T08:06:53;101359.78;;;21.06;30.66
67803;BME280;54601;51.378;-1.342;2023-05-23T08:09:19;101360.63;;;21.47;30.18
67803;BME280;54601;51.378;-1.342;2023-05-23T08:11:45;101360.43;;;21.40;30.23
67803;BME280;54601;51.378;-1.342;2023-05-23T08:14:11;101364.00;;;21.21;30.41
67803;BME280;54601;51.378;-1.342;2023-05-23T08:16:37;101361.48;;;21.30;30.33
67803;BME280;54601;51.378;-1.342;2023-05-23T08:19:03;101362.02;;;21.61;30.29
67803;BME280;54601;51.378;-1.342;2023-05-23T08:21:29;101362.11;;;21.24;30.39
67803;BME280;54601;51.378;-1.342;2023-05-23T08:23:55;101359.28;;;21.15;30.51
67803;BME280;54601;51.378;-1.342;2023-05-23T08:26:21;101357.66;;;21.20;30.43
67803;BME280;54601;51.378;-1.342;2023-05-23T08:28:47;101358.56;;;21.55;30.32
67803;BME280;54601;51.378;-1.342;2023-05-23T08:31:13;101357.98;;;21.04;30.35
67803;BME280;54601;51.378;-1.342;2023-05-23T08:33:39;101359.22;;;21.19;30.41
67803;BME280;54601;51.378;-1.342;2023-05-23T08:36:05;101357.03;;;21.18;30.46
67803;BME280;54601;51.378;-1.342;2023-05-23T08:38:31;101353.00;;;21.28;30.11
67803;BME280;54601;51.378;-1.342;2023-05-23T08:41:00;101353.49;;;21.36;30.25
67803;BME280;54601;51.378;-1.342;2023-05-23T08:43:22;101353.71;;;21.35;30.29
67803;BME280;54601;51.378;-1.342;2023-05-23T08:45:50;101351.31;;;21.81;29.76
67803;BME280;54601;51.378;-1.342;2023-05-23T08:48:18;101352.39;;;21.59;29.68
67803;BME280;54601;51.378;-1.342;2023-05-23T08:50:44;101348.51;;;21.85;29.78
67803;BME280;54601;51.378;-1.342;2023-05-23T08:53:08;101349.52;;;21.63;29.85
67803;BME280;54601;51.378;-1.342;2023-05-23T08:55:32;101352.74;;;21.82;29.74
67803;BME280;54601;51.378;-1.342;2023-05-23T08:57:58;101353.97;;;21.78;29.68
67803;BME280;54601;51.378;-1.342;2023-05-23T09:00:25;101356.09;;;21.94;29.56
67803;BME280;54601;51.378;-1.342;2023-05-23T09:02:50;101353.06;;;22.29;29.54
67803;BME280;54601;51.378;-1.342;2023-05-23T09:05:16;101345.85;;;21.63;29.89
67803;BME280;54601;51.378;-1.342;2023-05-23T09:07:44;101341.73;;;21.52;30.03
67803;BME280;54601;51.378;-1.342;2023-05-23T09:10:09;101343.07;;;21.80;29.77
67803;BME280;54601;51.378;-1.342;2023-05-23T09:12:34;101340.31;;;21.89;29.69
67803;BME280;54601;51.378;-1.342;2023-05-23T09:15:00;101342.39;;;21.50;30.08
67803;BME280;54601;51.378;-1.342;2023-05-23T09:17:26;101342.26;;;21.79;29.90
67803;BME280;54601;51.378;-1.342;2023-05-23T09:19:52;101344.90;;;21.38;30.31
67803;BME280;54601;51.378;-1.342;2023-05-23T09:22:23;101345.34;;;20.91;30.68
67803;BME280;54601;51.378;-1.342;2023-05-23T09:24:44;101346.28;;;21.28;30.89
67803;BME280;54601;51.378;-1.342;2023-05-23T09:27:11;101346.89;;;21.01;30.95
67803;BME280;54601;51.378;-1.342;2023-05-23T09:29:36;101343.83;;;21.13;30.90
67803;BME280;54601;51.378;-1.342;2023-05-23T09:32:10;101345.25;;;20.93;31.16
67803;BME280;54601;51.378;-1.342;2023-05-23T09:34:28;101343.54;;;20.89;31.33
67803;BME280;54601;51.378;-1.342;2023-05-23T09:36:54;101346.07;;;20.98;31.23
67803;BME280;54601;51.378;-1.342;2023-05-23T09:39:20;101347.72;;;20.99;31.27
67803;BME280;54601;51.378;-1.342;2023-05-23T09:41:47;101346.78;;;20.81;31.45
67803;BME280;54601;51.378;-1.342;2023-05-23T09:44:12;101351.01;;;20.86;31.40
67803;BME280;54601;51.378;-1.342;2023-05-23T09:46:38;101357.06;;;21.42;31.16
67803;BME280;54601;51.378;-1.342;2023-05-23T09:51:29;101357.53;;;21.34;30.99
67803;BME280;54601;51.378;-1.342;2023-05-23T09:53:55;101359.83;;;21.33;31.05
67803;BME280;54601;51.378;-1.342;2023-05-23T09:56:22;101362.46;;;21.08;31.34
67803;BME280;54601;51.378;-1.342;2023-05-23T09:58:48;101363.87;;;21.81;30.81
67803;BME280;54601;51.378;-1.342;2023-05-23T10:01:14;101363.61;;;21.51;30.87
67803;BME280;54601;51.378;-1.342;2023-05-23T10:03:44;101366.44;;;21.43;31.02
67803;BME280;54601;51.378;-1.342;2023-05-23T10:06:09;101365.68;;;21.60;30.87
67803;BME280;54601;51.378;-1.342;2023-05-23T10:08:35;101367.92;;;21.74;30.71
67803;BME280;54601;51.378;-1.342;2023-05-23T10:13:24;101370.52;;;21.69;30.51
67803;BME280;54601;51.378;-1.342;2023-05-23T10:15:50;101372.77;;;21.83;30.29
67803;BME280;54601;51.378;-1.342;2023-05-23T10:18:19;101371.34;;;21.77;30.35
67803;BME280;54601;51.378;-1.342;2023-05-23T10:20:43;101373.40;;;21.88;30.23
67803;BME280;54601;51.378;-1.342;2023-05-23T10:23:07;101370.97;;;22.24;30.04
67803;BME280;54601;51.378;-1.342;2023-05-23T10:25:33;101369.87;;;22.04;30.00
67803;BME280;54601;51.378;-1.342;2023-05-23T10:27:59;101369.68;;;22.25;29.78
67803;BME280;54601;51.378;-1.342;2023-05-23T10:30:25;101366.66;;;22.18;29.85
67803;BME280;54601;51.378;-1.342;2023-05-23T10:32:51;101367.87;;;22.43;29.57
67803;BME280;54601;51.378;-1.342;2023-05-23T10:35:22;101370.57;;;22.56;29.57
67803;BME280;54601;51.378;-1.342;2023-05-23T10:37:47;101373.38;;;22.15;29.76
67803;BME280;54601;51.378;-1.342;2023-05-23T10:40:15;101376.88;;;22.55;29.69
67803;BME280;54601;51.378;-1.342;2023-05-23T10:42:41;101377.44;;;22.21;29.67
67803;BME280;54601;51.378;-1.342;2023-05-23T10:47:26;101383.28;;;22.41;29.44
67803;BME280;54601;51.378;-1.342;2023-05-23T10:49:52;101379.27;;;22.41;29.46
67803;BME280;54601;51.378;-1.342;2023-05-23T10:52:19;101377.22;;;22.39;29.44
67803;BME280;54601;51.378;-1.342;2023-05-23T10:54:46;101371.90;;;22.28;29.48
67803;BME280;54601;51.378;-1.342;2023-05-23T10:57:11;101365.74;;;22.24;29.55
67803;BME280;54601;51.378;-1.342;2023-05-23T10:59:36;101358.58;;;22.62;29.47
67803;BME280;54601;51.378;-1.342;2023-05-23T11:02:02;101358.32;;;22.61;29.43
67803;BME280;54601;51.378;-1.342;2023-05-23T11:04:28;101358.43;;;22.35;29.54
67803;BME280;54601;51.378;-1.342;2023-05-23T11:06:54;101359.72;;;22.23;29.62
67803;BME280;54601;51.378;-1.342;2023-05-23T11:09:19;101368.07;;;22.56;29.48
67803;BME280;54601;51.378;-1.342;2023-05-23T11:11:51;101373.68;;;22.42;29.43
67803;BME280;54601;51.378;-1.342;2023-05-23T11:14:11;101375.92;;;22.46;29.41
67803;BME280;54601;51.378;-1.342;2023-05-23T11:16:40;101369.34;;;22.38;29.51
67803;BME280;54601;51.378;-1.342;2023-05-23T11:21:29;101362.79;;;22.62;29.53
67803;BME280;54601;51.378;-1.342;2023-05-23T11:23:55;101364.97;;;22.71;29.37
67803;BME280;54601;51.378;-1.342;2023-05-23T11:26:28;101371.66;;;22.30;29.65
67803;BME280;54601;51.378;-1.342;2023-05-23T11:28:55;101371.71;;;22.41;29.50
67803;BME280;54601;51.378;-1.342;2023-05-23T11:31:12;101374.10;;;22.48;29.50
67803;BME280;54601;51.378;-1.342;2023-05-23T11:33:38;101376.46;;;22.70;29.49
67803;BME280;54601;51.378;-1.342;2023-05-23T11:36:06;101374.86;;;22.36;29.64
67803;BME280;54601;51.378;-1.342;2023-05-23T11:38:31;101370.51;;;22.47;29.58
67803;BME280;54601;51.378;-1.342;2023-05-23T11:40:56;101370.82;;;22.17;29.64
67803;BME280;54601;51.378;-1.342;2023-05-23T11:43:22;101370.68;;;22.42;29.62
67803;BME280;54601;51.378;-1.342;2023-05-23T11:45:48;101368.63;;;22.19;29.65
67803;BME280;54601;51.378;-1.342;2023-05-23T11:48:15;101367.90;;;22.45;29.63
67803;BME280;54601;51.378;-1.342;2023-05-23T11:50:45;101364.61;;;22.21;29.88
67803;BME280;54601;51.378;-1.342;2023-05-23T11:53:06;101367.96;;;22.02;29.86
67803;BME280;54601;51.378;-1.342;2023-05-23T11:55:31;101367.47;;;22.37;29.76
67803;BME280;54601;51.378;-1.342;2023-05-23T11:57:58;101363.22;;;22.46;29.66
67803;BME280;54601;51.378;-1.342;2023-05-23T12:00:23;101365.21;;;22.40;29.71
67803;BME280;54601;51.378;-1.342;2023-05-23T12:02:49;101362.63;;;22.42;29.72
67803;BME280;54601;51.378;-1.342;2023-05-23T12:05:15;101363.66;;;22.45;29.66
67803;BME280;54601;51.378;-1.342;2023-05-23T12:07:41;101364.97;;;22.48;29.66
67803;BME280;54601;51.378;-1.342;2023-05-23T12:10:08;101366.51;;;22.42;29.71
67803;BME280;54601;51.378;-1.342;2023-05-23T12:12:33;101365.38;;;22.46;29.70
67803;BME280;54601;51.378;-1.342;2023-05-23T12:15:00;101362.71;;;22.28;29.70
67803;BME280;54601;51.378;-1.342;2023-05-23T12:17:25;101359.94;;;22.44;29.75
67803;BME280;54601;51.378;-1.342;2023-05-23T12:19:51;101364.83;;;22.17;29.98
67803;BME280;54601;51.378;-1.342;2023-05-23T12:22:21;101370.77;;;22.34;29.87
67803;BME280;54601;51.378;-1.342;2023-05-23T12:24:44;101369.45;;;22.48;29.75
67803;BME280;54601;51.378;-1.342;2023-05-23T12:27:08;101369.99;;;22.41;30.02
67803;BME280;54601;51.378;-1.342;2023-05-23T12:29:34;101368.38;;;22.29;29.90
67803;BME280;54601;51.378;-1.342;2023-05-23T12:32:01;101368.73;;;22.49;29.89
67803;BME280;54601;51.378;-1.342;2023-05-23T12:34:26;101363.35;;;22.47;29.68
67803;BME280;54601;51.378;-1.342;2023-05-23T12:36:54;101361.17;;;22.27;29.90
67803;BME280;54601;51.378;-1.342;2023-05-23T12:39:24;101360.20;;;22.26;29.95
67803;BME280;54601;51.378;-1.342;2023-05-23T12:41:44;101361.53;;;22.51;29.71